Time;durP1;ratioP1;P1;durP2;ratioP2;P2;SDS_P1;SDS_P2;PMS_P1;PMS_P2;Temp;Humidity;BMP_temperature;BMP_pressure;BME280_temperature;BME280_humidity;BME280_pressure;Samples;Min_cycle;Max_cycle;Signal;HPM_P1;HPM_P2
2023/09/01 00:00:16;;;;;;;9.30;7.60;;;23.60;99.90;;;;;;5226635;28;20025;-73
2023/09/01 00:02:47;;;;;;;12.90;7.40;;;23.70;99.90;;;;;;5228768;28;20110;-72
2023/09/01 00:05:18;;;;;;;10.63;7.88;;;23.70;99.90;;;;;;5230660;28;20049;-73
2023/09/01 00:07:49;;;;;;;10.15;5.20;;;23.60;99.90;;;;;;5230445;28;20033;-71
2023/09/01 00:10:19;;;;;;;10.50;8.10;;;23.40;99.90;;;;;;5230447;28;20114;-71
2023/09/01 00:12:50;;;;;;;10.60;6.35;;;23.50;99.90;;;;;;5230391;28;20033;-72
2023/09/01 00:15:21;;;;;;;10.52;7.85;;;23.70;99.90;;;;;;5230431;28;20036;-71
2023/09/01 00:17:52;;;;;;;11.52;8.00;;;23.60;99.90;;;;;;5230352;28;20028;-71
2023/09/01 00:20:23;;;;;;;9.75;7.53;;;23.60;99.90;;;;;;5230149;28;20025;-71
2023/09/01 00:22:53;;;;;;;10.32;7.53;;;23.60;99.90;;;;;;5229808;28;20112;-72
2023/09/01 00:25:24;;;;;;;10.38;7.63;;;23.50;99.90;;;;;;5229534;28;20119;-71
2023/09/01 00:27:55;;;;;;;11.68;7.80;;;23.40;99.90;;;;;;5229160;28;20028;-74
2023/09/01 00:30:29;;;;;;;15.10;7.82;;;23.20;99.90;;;;;;5229521;28;20384;-72
2023/09/01 00:33:00;;;;;;;7.82;6.70;;;23.40;99.90;;;;;;5228488;28;20523;-72
2023/09/01 00:35:30;;;;;;;9.68;6.10;;;23.30;99.90;;;;;;5228688;28;20029;-72
2023/09/01 00:38:01;;;;;;;9.85;7.38;;;23.10;99.90;;;;;;5228486;28;20033;-72
2023/09/01 00:40:32;;;;;;;12.18;8.38;;;23.20;99.90;;;;;;5228334;28;20036;-71
2023/09/01 00:43:03;;;;;;;10.20;9.10;;;23.00;99.90;;;;;;5228382;28;20037;-71
2023/09/01 00:45:36;;;;;;;11.32;8.68;;;23.00;99.90;;;;;;5228649;28;20025;-71
2023/09/01 00:48:08;;;;;;;9.48;8.25;;;23.00;99.90;;;;;;5229529;28;20045;-71
2023/09/01 00:50:40;;;;;;;11.75;7.72;;;23.10;99.90;;;;;;5229556;28;20025;-74
2023/09/01 00:53:11;;;;;;;9.20;7.95;;;23.00;99.90;;;;;;5229607;28;20035;-73
2023/09/01 00:55:42;;;;;;;9.88;8.27;;;22.90;99.90;;;;;;5229081;28;20544;-71
2023/09/01 00:58:13;;;;;;;11.90;8.40;;;22.90;99.90;;;;;;5229523;28;20032;-71
2023/09/01 01:00:44;;;;;;;12.57;9.32;;;22.80;99.90;;;;;;5229404;28;20204;-74
2023/09/01 01:03:15;;;;;;;10.63;8.80;;;22.90;99.90;;;;;;5229393;28;20063;-74
2023/09/01 01:06:00;;;;;;;14.30;9.38;;;22.70;99.90;;;;;;5229266;28;20033;-71
2023/09/01 01:08:36;;;;;;;10.48;9.57;;;22.60;99.90;;;;;;5229220;28;20090;-71
2023/09/01 01:11:26;;;;;;;15.20;9.65;;;22.60;99.90;;;;;;5229354;28;20044;-71
2023/09/01 01:14:02;;;;;;;11.07;8.75;;;22.80;99.90;;;;;;5228765;28;20025;-71
2023/09/01 01:16:33;;;;;;;11.27;9.35;;;22.60;99.90;;;;;;5229156;28;20107;-74
2023/09/01 01:19:21;;;;;;;11.15;8.68;;;22.50;99.90;;;;;;5228885;28;20033;-71
2023/09/01 01:21:58;;;;;;;9.70;8.73;;;22.60;99.90;;;;;;5229049;28;20021;-72
2023/09/01 01:24:32;;;;;;;13.65;9.90;;;22.50;99.90;;;;;;5228332;28;20025;-71
2023/09/01 01:27:03;;;;;;;12.32;9.60;;;22.60;99.90;;;;;;5228080;28;20392;-71
2023/09/01 01:29:34;;;;;;;10.70;9.52;;;22.60;99.90;;;;;;5227490;28;20025;-71
2023/09/01 01:32:05;;;;;;;9.73;8.80;;;22.40;99.90;;;;;;5227390;28;20009;-74
2023/09/01 01:34:46;;;;;;;11.10;8.93;;;22.40;99.90;;;;;;5227376;28;20025;-71
2023/09/01 01:37:33;;;;;;;9.40;8.10;;;22.30;99.90;;;;;;5227402;28;20021;-72
2023/09/01 01:40:06;;;;;;;11.50;9.30;;;22.50;99.90;;;;;;5227407;28;20036;-71
2023/09/01 01:45:20;;;;;;;10.68;9.35;;;22.70;99.90;;;;;;5429066;23;20062;-72
2023/09/01 01:47:52;;;;;;;12.60;9.85;;;22.70;99.90;;;;;;5167408;28;20038;-73
2023/09/01 01:50:23;;;;;;;10.95;9.85;;;22.70;99.90;;;;;;5167741;28;20033;-72
2023/09/01 01:52:54;;;;;;;10.93;8.25;;;22.70;99.90;;;;;;5169417;28;20022;-75
2023/09/01 01:55:24;;;;;;;10.43;9.35;;;22.60;99.90;;;;;;5181596;28;20030;-74
2023/09/01 01:57:55;;;;;;;11.45;9.10;;;22.40;99.90;;;;;;5169491;28;20041;-75
2023/09/01 02:00:32;;;;;;;9.82;8.02;;;22.40;99.90;;;;;;5167070;28;20084;-75
2023/09/01 02:03:04;;;;;;;10.38;7.60;;;22.30;99.90;;;;;;5166995;28;20105;-75
2023/09/01 02:05:41;;;;;;;9.05;7.53;;;22.50;99.90;;;;;;5166842;28;20458;-75
2023/09/01 02:08:12;;;;;;;10.60;8.10;;;22.40;99.90;;;;;;5166859;28;20034;-72
2023/09/01 02:10:43;;;;;;;11.40;7.82;;;22.40;99.90;;;;;;5166891;28;20432;-75
2023/09/01 02:13:14;;;;;;;10.50;9.43;;;22.30;99.90;;;;;;5166865;28;20035;-74
2023/09/01 02:15:52;;;;;;;10.30;8.88;;;22.30;99.90;;;;;;5165495;28;20026;-72
2023/09/01 02:18:23;;;;;;;10.93;9.70;;;22.20;99.90;;;;;;5166594;28;20014;-74
2023/09/01 02:20:54;;;;;;;10.32;9.43;;;22.30;99.90;;;;;;5165781;28;20044;-72
2023/09/01 02:23:25;;;;;;;9.98;8.98;;;22.20;99.90;;;;;;5165694;28;20371;-73
2023/09/01 02:25:56;;;;;;;11.40;10.27;;;22.10;99.90;;;;;;5164388;28;20084;-72
2023/09/01 02:28:26;;;;;;;9.88;8.85;;;22.20;99.90;;;;;;5165012;28;20030;-73
2023/09/01 02:30:57;;;;;;;10.70;9.57;;;22.30;99.90;;;;;;5165061;28;20050;-74
2023/09/01 02:33:28;;;;;;;9.63;8.73;;;22.20;99.90;;;;;;5166817;28;20168;-72
2023/09/01 02:36:21;;;;;;;13.07;9.70;;;22.30;99.90;;;;;;5185143;28;20029;-71
2023/09/01 02:38:56;;;;;;;10.77;9.77;;;22.40;99.90;;;;;;5184413;28;20477;-71
2023/09/01 02:41:28;;;;;;;9.18;8.27;;;22.30;99.90;;;;;;5185266;28;20026;-73
2023/09/01 02:43:58;;;;;;;10.65;9.63;;;22.20;99.90;;;;;;5186223;28;20045;-72
2023/09/01 02:46:30;;;;;;;10.55;9.50;;;22.30;99.90;;;;;;5186386;28;20474;-75
2023/09/01 02:49:01;;;;;;;11.18;9.80;;;22.20;99.90;;;;;;5185106;28;20457;-72
2023/09/01 02:51:31;;;;;;;11.13;10.13;;;22.00;99.90;;;;;;5186296;28;20018;-72
2023/09/01 02:54:04;;;;;;;12.45;11.30;;;22.00;99.90;;;;;;5186335;28;20034;-74
2023/09/01 02:56:35;;;;;;;13.23;11.98;;;22.10;99.90;;;;;;5186253;28;20010;-74
2023/09/01 02:59:06;;;;;;;11.45;10.50;;;22.20;99.90;;;;;;5186188;28;20041;-71
2023/09/01 03:01:37;;;;;;;10.85;9.95;;;22.10;99.90;;;;;;5186050;28;20056;-72
2023/09/01 03:04:08;;;;;;;11.15;10.05;;;22.20;99.90;;;;;;5185976;28;20037;-71
2023/09/01 03:06:38;;;;;;;11.98;10.00;;;22.10;99.90;;;;;;5185958;28;20042;-72
2023/09/01 03:09:10;;;;;;;11.68;10.50;;;22.00;99.90;;;;;;5185888;28;20022;-71
2023/09/01 03:11:41;;;;;;;10.23;9.20;;;21.90;99.90;;;;;;5185982;28;20389;-72
2023/09/01 03:14:11;;;;;;;12.50;9.75;;;21.90;99.90;;;;;;5184370;28;20032;-72
2023/09/01 03:16:43;;;;;;;11.38;9.77;;;21.90;99.90;;;;;;5185155;28;20064;-73
2023/09/01 03:19:14;;;;;;;10.48;9.32;;;21.90;99.90;;;;;;5184870;28;20634;-71
2023/09/01 03:21:45;;;;;;;13.27;8.80;;;21.90;99.90;;;;;;5184635;28;20072;-72
2023/09/01 03:24:15;;;;;;;11.40;8.52;;;21.90;99.90;;;;;;5184473;28;20101;-72
2023/09/01 03:26:46;;;;;;;11.23;8.55;;;21.90;99.90;;;;;;5184295;28;20042;-72
2023/09/01 03:29:17;;;;;;;10.77;8.82;;;21.80;99.90;;;;;;5184361;28;20018;-73
2023/09/01 03:31:48;;;;;;;11.80;8.43;;;21.80;99.90;;;;;;5184297;28;20030;-72
2023/09/01 03:34:19;;;;;;;11.02;9.07;;;21.80;99.90;;;;;;5184981;28;20037;-75
2023/09/01 03:36:49;;;;;;;12.18;8.75;;;21.80;99.90;;;;;;5185328;28;20087;-75
2023/09/01 03:39:20;;;;;;;10.25;8.63;;;21.70;99.90;;;;;;5185822;28;20815;-71
2023/09/01 03:41:51;;;;;;;9.52;8.52;;;21.90;99.90;;;;;;5185841;28;20452;-72
2023/09/01 03:44:22;;;;;;;10.55;8.25;;;21.90;99.90;;;;;;5604225;23;20049;-72
2023/09/01 03:46:52;;;;;;;9.57;8.57;;;21.80;99.90;;;;;;5192156;28;20038;-72
2023/09/01 03:49:26;;;;;;;9.32;8.52;;;21.60;99.90;;;;;;5189259;28;20022;-74
2023/09/01 03:51:58;;;;;;;9.68;8.35;;;21.70;99.90;;;;;;5194129;28;20036;-72
2023/09/01 03:54:29;;;;;;;12.50;9.27;;;21.80;99.90;;;;;;5185510;28;20503;-71
2023/09/01 03:56:59;;;;;;;12.93;7.88;;;21.90;99.90;;;;;;5185254;28;20026;-75
2023/09/01 03:59:32;;;;;;;12.18;8.68;;;21.90;99.90;;;;;;5185258;28;20459;-72
2023/09/01 04:02:04;;;;;;;12.23;8.98;;;21.90;99.90;;;;;;5197980;28;20037;-74
2023/09/01 04:04:35;;;;;;;10.30;8.75;;;21.80;99.90;;;;;;5205752;28;20432;-74
2023/09/01 04:07:06;;;;;;;9.40;8.20;;;21.90;99.90;;;;;;5205405;28;20045;-72
2023/09/01 04:09:36;;;;;;;9.02;8.15;;;21.90;99.90;;;;;;5205563;28;20029;-72
2023/09/01 04:12:07;;;;;;;12.93;8.45;;;21.80;99.90;;;;;;5204562;28;20028;-75
2023/09/01 04:14:38;;;;;;;10.40;9.02;;;21.80;99.90;;;;;;5193288;28;20473;-72
2023/09/01 04:17:09;;;;;;;16.98;8.23;;;21.90;99.90;;;;;;5183866;28;20413;-71
2023/09/01 04:19:40;;;;;;;11.27;8.45;;;21.90;99.90;;;;;;5183803;28;20378;-72
2023/09/01 04:22:10;;;;;;;10.40;8.38;;;21.90;99.90;;;;;;5183818;28;20378;-72
2023/09/01 04:24:42;;;;;;;11.10;8.25;;;22.10;99.90;;;;;;5182459;28;20033;-73
2023/09/01 04:27:13;;;;;;;10.43;8.60;;;22.10;99.90;;;;;;5183633;28;20374;-72
2023/09/01 04:29:43;;;;;;;10.23;8.98;;;22.00;99.90;;;;;;5182842;28;20037;-71
2023/09/01 04:32:14;;;;;;;10.57;8.25;;;22.10;99.90;;;;;;5185006;28;20032;-74
2023/09/01 04:34:45;;;;;;;9.75;8.82;;;22.20;99.90;;;;;;5184750;28;20026;-72
2023/09/01 04:37:16;;;;;;;9.32;8.15;;;22.30;99.90;;;;;;5184901;28;20042;-73
2023/09/01 04:39:46;;;;;;;10.20;8.75;;;22.10;99.90;;;;;;5184860;28;20026;-72
2023/09/01 04:42:17;;;;;;;8.52;7.68;;;22.00;99.90;;;;;;5184881;28;20034;-71
2023/09/01 04:44:48;;;;;;;12.65;9.10;;;22.20;99.90;;;;;;5184478;28;20457;-72
2023/09/01 04:47:19;;;;;;;11.10;8.80;;;22.20;99.90;;;;;;5184866;28;20116;-71
2023/09/01 04:49:50;;;;;;;11.80;9.10;;;22.30;99.90;;;;;;5186835;28;20418;-71
2023/09/01 04:52:22;;;;;;;10.95;9.85;;;22.40;99.90;;;;;;5187183;28;20088;-71
2023/09/01 04:54:53;;;;;;;11.18;10.25;;;22.60;99.90;;;;;;5188862;28;20405;-72
2023/09/01 04:57:28;;;;;;;13.15;9.95;;;22.70;99.90;;;;;;5186732;28;20036;-75
2023/09/01 04:59:59;;;;;;;12.07;10.82;;;22.70;99.90;;;;;;5187881;28;20060;-74
2023/09/01 05:02:30;;;;;;;13.63;10.40;;;22.70;99.90;;;;;;5188389;28;20050;-73
2023/09/01 05:05:01;;;;;;;12.18;11.05;;;22.80;99.90;;;;;;5203706;28;20034;-72
2023/09/01 05:07:32;;;;;;;11.90;10.75;;;23.00;99.90;;;;;;5186132;28;20543;-72
2023/09/01 05:10:03;;;;;;;10.23;8.93;;;23.00;99.90;;;;;;5187856;28;20034;-73
2023/09/01 05:12:34;;;;;;;10.75;7.90;;;23.00;99.90;;;;;;5186835;28;20026;-74
2023/09/01 05:15:06;;;;;;;8.32;7.22;;;23.20;99.90;;;;;;5186647;28;20469;-72
2023/09/01 05:17:36;;;;;;;9.00;7.38;;;23.20;99.90;;;;;;5186843;28;20038;-72
2023/09/01 05:20:07;;;;;;;8.43;7.35;;;23.20;99.90;;;;;;5186798;28;20544;-72
2023/09/01 05:22:38;;;;;;;7.95;7.10;;;23.20;99.90;;;;;;5186636;28;20473;-74
2023/09/01 05:25:11;;;;;;;8.05;7.10;;;23.20;99.90;;;;;;5185117;28;20030;-75
2023/09/01 05:27:50;;;;;;;9.13;6.97;;;23.40;99.90;;;;;;5182261;28;20287;-73
2023/09/01 05:30:22;;;;;;;9.02;7.43;;;23.30;99.90;;;;;;5170421;28;20378;-74
2023/09/01 05:32:53;;;;;;;10.45;9.10;;;23.40;99.90;;;;;;5181456;28;20084;-71
2023/09/01 05:35:24;;;;;;;11.07;9.00;;;23.50;99.90;;;;;;5183551;28;20069;-72
2023/09/01 05:37:55;;;;;;;11.52;10.15;;;23.50;99.90;;;;;;5181904;28;20080;-73
2023/09/01 05:40:26;;;;;;;9.82;8.82;;;23.80;99.90;;;;;;5182337;28;20177;-71
2023/09/01 05:42:56;;;;;;;8.50;7.60;;;23.80;99.90;;;;;;5182832;28;20034;-75
2023/09/01 05:45:27;;;;;;;7.93;7.15;;;24.00;99.90;;;;;;5621483;23;20058;-74
2023/09/01 05:47:58;;;;;;;8.63;7.25;;;24.20;99.90;;;;;;5145184;28;20121;-72
2023/09/01 05:50:29;;;;;;;16.77;8.93;;;24.30;99.90;;;;;;5139865;28;20371;-72
2023/09/01 05:53:00;;;;;;;9.07;8.27;;;24.40;99.90;;;;;;5131526;28;20094;-72
2023/09/01 05:55:30;;;;;;;9.43;6.95;;;24.60;99.90;;;;;;5141019;28;20489;-72
2023/09/01 05:58:02;;;;;;;8.05;7.25;;;24.80;99.90;;;;;;5141285;28;20105;-71
2023/09/01 06:00:34;;;;;;;8.20;6.82;;;24.90;99.90;;;;;;5140145;28;20034;-72
2023/09/01 06:03:05;;;;;;;8.68;7.97;;;25.10;99.90;;;;;;5139806;28;20106;-73
2023/09/01 06:05:36;;;;;;;9.85;9.02;;;25.30;99.90;;;;;;5141464;28;20041;-72
2023/09/01 06:08:07;;;;;;;10.57;9.68;;;25.40;99.90;;;;;;5141358;28;20034;-74
2023/09/01 06:10:41;;;;;;;9.70;8.60;;;25.60;99.90;;;;;;5141379;28;20035;-73
2023/09/01 06:13:12;;;;;;;8.75;7.85;;;25.70;99.90;;;;;;5138181;28;20023;-73
2023/09/01 06:15:43;;;;;;;10.52;8.85;;;25.70;99.90;;;;;;5139888;28;20038;-72
2023/09/01 06:18:14;;;;;;;8.38;7.68;;;25.90;99.90;;;;;;5140589;28;20071;-72
2023/09/01 06:20:45;;;;;;;8.90;8.18;;;26.00;99.90;;;;;;5139978;28;20138;-74
2023/09/01 06:23:17;;;;;;;8.45;7.82;;;26.20;99.90;;;;;;5140937;28;20027;-72
2023/09/01 06:25:48;;;;;;;10.05;8.60;;;26.30;99.90;;;;;;5139621;28;20042;-71
2023/09/01 06:28:18;;;;;;;7.97;7.28;;;26.40;99.90;;;;;;5139815;28;20039;-75
2023/09/01 06:30:49;;;;;;;7.57;6.90;;;26.50;99.90;;;;;;5138898;28;20501;-72
2023/09/01 06:33:20;;;;;;;8.70;7.93;;;26.70;99.90;;;;;;5140121;28;20031;-74
2023/09/01 06:35:51;;;;;;;10.20;8.40;;;26.70;99.90;;;;;;5140802;28;20035;-72
2023/09/01 06:38:22;;;;;;;10.38;9.55;;;26.80;99.90;;;;;;5140378;28;20023;-72
2023/09/01 06:40:52;;;;;;;11.07;10.27;;;26.90;99.90;;;;;;5138539;28;20034;-74
2023/09/01 06:43:23;;;;;;;13.20;12.20;;;26.90;99.90;;;;;;5138018;28;20034;-71
2023/09/01 06:45:54;;;;;;;14.75;11.07;;;26.90;99.90;;;;;;5124188;28;20216;-73
2023/09/01 06:48:26;;;;;;;11.80;10.90;;;27.00;99.90;;;;;;5128791;28;20369;-73
2023/09/01 06:50:58;;;;;;;12.43;11.43;;;27.00;99.90;;;;;;5138410;28;20055;-72
2023/09/01 06:53:29;;;;;;;12.00;11.10;;;27.10;99.90;;;;;;5140453;28;20031;-75
2023/09/01 06:55:59;;;;;;;11.80;10.90;;;27.30;99.90;;;;;;5140845;28;20057;-72
2023/09/01 06:58:30;;;;;;;14.07;8.90;;;27.40;99.90;;;;;;5137733;28;20027;-72
2023/09/01 07:01:08;;;;;;;8.20;7.50;;;27.50;99.90;;;;;;5140522;28;20026;-72
2023/09/01 07:03:39;;;;;;;7.15;6.53;;;27.60;99.90;;;;;;5140659;28;20026;-72
2023/09/01 07:06:10;;;;;;;9.15;8.38;;;27.60;99.90;;;;;;5139571;28;20039;-72
2023/09/01 07:08:41;;;;;;;8.52;7.25;;;27.50;99.90;;;;;;5140013;28;20062;-74
2023/09/01 07:11:14;;;;;;;7.03;6.40;;;27.50;99.90;;;;;;5139404;28;20106;-75
2023/09/01 07:13:46;;;;;;;7.63;7.03;;;27.60;99.90;;;;;;5139358;28;20023;-75
2023/09/01 07:16:17;;;;;;;7.32;6.65;;;27.70;99.90;;;;;;5139765;28;20026;-76
2023/09/01 07:18:48;;;;;;;8.43;7.60;;;27.60;99.90;;;;;;5139396;28;20042;-74
2023/09/01 07:21:19;;;;;;;6.65;6.05;;;27.80;99.90;;;;;;5138448;28;20034;-74
2023/09/01 07:23:50;;;;;;;7.78;7.00;;;27.90;99.90;;;;;;5141175;28;20097;-74
2023/09/01 07:26:21;;;;;;;6.95;6.35;;;27.90;99.90;;;;;;5138840;28;20038;-74
2023/09/01 07:28:52;;;;;;;8.38;7.07;;;28.00;99.90;;;;;;5140923;28;20026;-72
2023/09/01 07:31:23;;;;;;;10.88;8.43;;;28.10;99.90;;;;;;5140680;28;20030;-73
2023/09/01 07:33:54;;;;;;;12.13;8.20;;;28.10;99.90;;;;;;5140202;28;20065;-73
2023/09/01 07:36:25;;;;;;;8.82;8.13;;;28.00;99.90;;;;;;5140503;28;20450;-75
2023/09/01 07:38:55;;;;;;;9.30;8.52;;;27.70;99.90;;;;;;5139954;28;20034;-74
2023/09/01 07:41:27;;;;;;;8.20;7.60;;;27.90;99.90;;;;;;5138643;28;20134;-74
2023/09/01 07:43:58;;;;;;;7.85;7.35;;;28.00;99.90;;;;;;5139328;28;20475;-74
2023/09/01 07:46:33;;;;;;;8.32;7.53;;;28.10;99.90;;;;;;5139956;28;20113;-72
2023/09/01 07:49:04;;;;;;;10.65;8.40;;;28.30;99.90;;;;;;5139701;28;20019;-73
2023/09/01 07:51:34;;;;;;;7.78;7.07;;;28.40;99.90;;;;;;5139940;28;20037;-73
2023/09/01 07:54:06;;;;;;;10.48;7.03;;;28.40;99.90;;;;;;5140172;28;20019;-74
2023/09/01 07:56:37;;;;;;;12.45;7.07;;;28.40;99.90;;;;;;5140449;28;20035;-73
2023/09/01 07:59:09;;;;;;;7.50;6.93;;;28.40;99.90;;;;;;5140846;28;20022;-73
2023/09/01 08:01:40;;;;;;;7.20;6.60;;;28.10;99.90;;;;;;5140686;28;20668;-73
2023/09/01 08:04:11;;;;;;;7.18;6.63;;;28.40;99.90;;;;;;5140568;28;20054;-73
2023/09/01 08:06:43;;;;;;;9.20;7.68;;;28.60;99.90;;;;;;5139872;28;20041;-72
2023/09/01 08:09:15;;;;;;;9.32;8.10;;;28.60;99.90;;;;;;5138856;28;20031;-73
2023/09/01 08:11:46;;;;;;;8.05;7.45;;;28.70;99.90;;;;;;5138530;28;20065;-75
2023/09/01 08:14:17;;;;;;;9.05;8.30;;;28.70;99.90;;;;;;5140095;28;20122;-72
2023/09/01 08:16:48;;;;;;;10.82;9.73;;;28.40;99.90;;;;;;5140749;28;20391;-71
2023/09/01 08:19:19;;;;;;;10.15;9.45;;;28.60;99.90;;;;;;5140074;28;20023;-72
2023/09/01 08:21:50;;;;;;;8.70;7.97;;;28.70;99.90;;;;;;5140553;28;20110;-74
2023/09/01 08:24:21;;;;;;;8.63;7.80;;;28.80;99.90;;;;;;5143221;28;20037;-73
2023/09/01 08:26:52;;;;;;;8.45;7.57;;;28.80;99.90;;;;;;5144161;28;20042;-72
2023/09/01 08:29:22;;;;;;;8.27;7.43;;;28.80;99.90;;;;;;5143955;28;21379;-73
2023/09/01 08:31:53;;;;;;;7.75;6.97;;;28.90;99.90;;;;;;5143865;28;20074;-73
2023/09/01 08:34:24;;;;;;;7.10;6.47;;;29.00;99.90;;;;;;5143556;28;20033;-73
2023/09/01 08:36:55;;;;;;;6.85;6.28;;;29.10;99.90;;;;;;5144630;28;20173;-73
2023/09/01 08:39:26;;;;;;;5.90;5.32;;;29.10;99.90;;;;;;5143782;28;20034;-75
2023/09/01 08:41:57;;;;;;;8.13;6.10;;;29.20;99.90;;;;;;5143220;28;20181;-75
2023/09/01 08:44:29;;;;;;;9.80;5.60;;;29.10;99.90;;;;;;5142019;28;20058;-73
2023/09/01 08:47:00;;;;;;;8.18;5.63;;;29.00;99.90;;;;;;5142148;28;20042;-73
2023/09/01 08:49:31;;;;;;;6.55;6.05;;;28.90;99.90;;;;;;5141051;28;20039;-73
2023/09/01 08:52:03;;;;;;;5.85;5.35;;;28.80;99.90;;;;;;5141266;28;20506;-73
2023/09/01 08:54:36;;;;;;;8.80;4.65;;;28.80;99.90;;;;;;5141841;28;20047;-73
2023/09/01 08:57:07;;;;;;;6.57;4.60;;;29.00;99.90;;;;;;5142020;28;20131;-73
2023/09/01 08:59:38;;;;;;;4.78;4.38;;;28.90;99.90;;;;;;5141328;28;20043;-73
2023/09/01 09:02:08;;;;;;;7.88;4.65;;;28.90;99.90;;;;;;5142056;28;20042;-73
2023/09/01 09:04:39;;;;;;;8.40;5.00;;;29.00;99.90;;;;;;5142905;28;20026;-75
2023/09/01 09:07:15;;;;;;;5.45;4.75;;;29.10;99.90;;;;;;5142506;28;20038;-74
2023/09/01 09:09:57;;;;;;;4.85;4.45;;;28.90;99.90;;;;;;5141644;28;20030;-72
2023/09/01 09:12:39;;;;;;;5.60;5.10;;;28.90;99.90;;;;;;5142598;28;20031;-75
2023/09/01 09:15:17;;;;;;;4.85;4.45;;;28.80;99.90;;;;;;5140700;28;20118;-75
2023/09/01 09:17:48;;;;;;;5.40;4.25;;;29.10;99.90;;;;;;5141723;28;20050;-75
2023/09/01 09:20:22;;;;;;;5.72;4.20;;;29.40;99.90;;;;;;5143003;28;20502;-75
2023/09/01 09:22:59;;;;;;;4.63;4.22;;;29.50;99.90;;;;;;5140590;28;20027;-73
2023/09/01 09:25:33;;;;;;;9.10;4.50;;;29.40;99.90;;;;;;5143199;28;20023;-72
2023/09/01 09:28:13;;;;;;;4.95;4.55;;;29.50;99.90;;;;;;5142599;28;20041;-73
2023/09/01 09:30:51;;;;;;;5.93;4.88;;;29.50;99.90;;;;;;5142426;28;20014;-73
2023/09/01 09:33:30;;;;;;;7.55;5.45;;;29.60;99.90;;;;;;5142389;28;20023;-73
2023/09/01 09:36:05;;;;;;;5.45;5.00;;;29.70;99.90;;;;;;5142273;28;20027;-73
2023/09/01 09:38:50;;;;;;;7.05;5.20;;;29.40;99.90;;;;;;5142606;28;20126;-73
2023/09/01 09:41:22;;;;;;;5.13;4.70;;;29.50;99.90;;;;;;5141718;28;20018;-74
2023/09/01 09:43:53;;;;;;;6.15;5.30;;;29.60;99.90;;;;;;5141842;28;20132;-73
2023/09/01 09:46:24;;;;;;;6.68;5.63;;;29.80;99.90;;;;;;5140864;28;20475;-73
2023/09/01 09:48:56;;;;;;;7.05;4.82;;;29.70;99.90;;;;;;5141442;28;20023;-73
2023/09/01 09:51:27;;;;;;;6.07;5.47;;;29.80;99.90;;;;;;5139553;28;20027;-74
2023/09/01 09:53:58;;;;;;;5.80;4.88;;;30.00;99.90;;;;;;5138721;28;20031;-72
2023/09/01 09:56:33;;;;;;;6.28;4.72;;;30.00;99.90;;;;;;5141175;28;20042;-74
2023/09/01 09:59:05;;;;;;;5.30;4.80;;;29.90;99.90;;;;;;5140610;28;20447;-74
2023/09/01 10:01:39;;;;;;;7.30;4.68;;;30.00;99.90;;;;;;5141904;28;20042;-73
2023/09/01 10:04:10;;;;;;;4.70;4.22;;;30.10;99.90;;;;;;5142398;28;20098;-74
2023/09/01 10:06:42;;;;;;;4.07;3.70;;;30.20;99.90;;;;;;5141163;28;20038;-74
2023/09/01 10:09:16;;;;;;;4.88;4.47;;;30.00;99.90;;;;;;5140224;28;20097;-75
2023/09/01 10:11:47;;;;;;;5.22;3.90;;;30.20;99.90;;;;;;5140479;28;20019;-73
2023/09/01 10:14:21;;;;;;;5.68;4.60;;;30.30;99.90;;;;;;5141202;28;20026;-74
2023/09/01 10:16:52;;;;;;;5.70;4.07;;;30.20;99.90;;;;;;5140089;28;20018;-73
2023/09/01 10:19:24;;;;;;;5.63;4.38;;;30.30;99.90;;;;;;5141013;28;21392;-73
2023/09/01 10:21:55;;;;;;;6.00;4.45;;;30.50;99.90;;;;;;5140656;28;20501;-74
2023/09/01 10:24:28;;;;;;;5.95;5.35;;;30.60;99.90;;;;;;5139980;28;20108;-75
2023/09/01 10:27:08;;;;;;;6.55;4.63;;;30.50;99.90;;;;;;5141474;28;20038;-73
2023/09/01 10:29:39;;;;;;;4.97;4.50;;;30.40;99.90;;;;;;5142137;28;20030;-75
2023/09/01 10:32:18;;;;;;;4.13;3.78;;;30.70;99.90;;;;;;5141962;28;20477;-74
2023/09/01 10:34:55;;;;;;;6.00;4.43;;;30.60;99.90;;;;;;5141954;28;20026;-75
2023/09/01 10:37:30;;;;;;;5.88;3.90;;;30.60;99.90;;;;;;5138202;28;20030;-74
2023/09/01 10:40:04;;;;;;;5.50;4.65;;;30.50;99.90;;;;;;5141015;28;20563;-73
2023/09/01 10:42:48;;;;;;;9.82;6.53;;;30.70;99.90;;;;;;5139406;28;20090;-74
2023/09/01 10:45:19;;;;;;;5.80;4.20;;;30.90;99.90;;;;;;5140755;28;20050;-72
2023/09/01 10:47:52;;;;;;;5.28;4.30;;;30.80;99.90;;;;;;5140167;28;20039;-73
2023/09/01 10:50:23;;;;;;;6.78;4.28;;;30.80;99.90;;;;;;5139896;28;20125;-76
2023/09/01 10:53:31;;;;;;;6.32;4.25;;;30.80;99.90;;;;;;5140060;28;20146;-73
2023/09/01 10:56:12;;;;;;;11.38;5.75;;;30.80;99.90;;;;;;5140924;28;20034;-73
2023/09/01 10:58:49;;;;;;;6.22;4.32;;;30.80;99.90;;;;;;5141275;28;20023;-75
2023/09/01 11:01:38;;;;;;;5.20;4.63;;;31.00;99.90;;;;;;5140905;28;20038;-75
2023/09/01 11:04:21;;;;;;;7.68;4.22;;;30.90;99.90;;;;;;5140918;28;20038;-73
2023/09/01 11:06:58;;;;;;;4.25;3.95;;;30.70;99.90;;;;;;5141834;28;20475;-73
2023/09/01 11:09:35;;;;;;;5.47;4.47;;;30.80;99.90;;;;;;5137813;28;20074;-72
2023/09/01 11:12:07;;;;;;;4.25;3.95;;;31.00;99.90;;;;;;5141654;28;20539;-74
2023/09/01 11:14:54;;;;;;;4.95;4.55;;;31.00;99.90;;;;;;5140867;28;20407;-73
2023/09/01 11:17:44;;;;;;;6.65;4.50;;;31.00;99.90;;;;;;5141149;28;20121;-72
2023/09/01 11:20:19;;;;;;;5.45;4.50;;;31.20;99.90;;;;;;5138854;28;20104;-75
2023/09/01 11:22:50;;;;;;;6.13;4.63;;;31.20;99.90;;;;;;5140761;28;20415;-72
2023/09/01 11:25:23;;;;;;;7.05;4.75;;;31.00;99.90;;;;;;5139483;28;20387;-72
2023/09/01 11:27:53;;;;;;;4.60;4.20;;;30.90;99.90;;;;;;5140987;28;20126;-73
2023/09/01 11:30:24;;;;;;;5.35;4.80;;;30.70;99.90;;;;;;5139458;28;20093;-73
2023/09/01 11:32:56;;;;;;;5.25;4.65;;;30.50;99.90;;;;;;5139534;28;20089;-74
2023/09/01 11:35:28;;;;;;;4.65;4.25;;;30.30;99.90;;;;;;5137283;28;20121;-73
2023/09/01 11:37:59;;;;;;;8.05;4.60;;;30.30;99.90;;;;;;5139992;28;20367;-73
2023/09/01 11:40:32;;;;;;;7.82;6.03;;;30.40;99.90;;;;;;5140914;28;20069;-73
2023/09/01 11:43:03;;;;;;;6.07;4.97;;;30.50;99.90;;;;;;5140512;28;20023;-75
2023/09/01 11:45:34;;;;;;;6.72;6.10;;;30.30;99.90;;;;;;5138282;28;20085;-75
2023/09/01 11:48:05;;;;;;;4.88;4.47;;;30.50;99.90;;;;;;5140390;28;20394;-74
2023/09/01 11:50:39;;;;;;;7.40;5.32;;;30.50;99.90;;;;;;5139086;28;20114;-76
2023/09/01 11:53:09;;;;;;;5.43;4.95;;;30.40;99.90;;;;;;5140976;28;20567;-75
2023/09/01 11:55:49;;;;;;;7.53;5.13;;;30.30;99.90;;;;;;5138537;28;20037;-76
2023/09/01 11:58:20;;;;;;;5.30;4.80;;;30.50;99.90;;;;;;5136150;28;20081;-75
2023/09/01 12:00:51;;;;;;;5.13;4.63;;;30.50;99.90;;;;;;5141011;28;20031;-73
2023/09/01 12:03:25;;;;;;;5.45;4.82;;;30.70;99.90;;;;;;5140457;28;20027;-75
2023/09/01 12:05:55;;;;;;;5.30;4.80;;;30.50;99.90;;;;;;5140871;28;20085;-72
2023/09/01 12:08:26;;;;;;;6.68;5.35;;;30.60;99.90;;;;;;5140677;28;20042;-73
2023/09/01 12:11:05;;;;;;;7.57;5.35;;;30.70;99.90;;;;;;5139343;28;20038;-73
2023/09/01 12:13:36;;;;;;;7.65;5.35;;;30.70;99.90;;;;;;5139592;28;20039;-74
2023/09/01 12:16:06;;;;;;;6.07;5.47;;;30.80;99.90;;;;;;5137072;28;20027;-75
2023/09/01 12:18:41;;;;;;;5.43;4.90;;;30.90;99.90;;;;;;5138024;28;20031;-75
2023/09/01 12:21:12;;;;;;;5.63;4.90;;;30.50;99.90;;;;;;5139748;28;20035;-74
2023/09/01 12:23:45;;;;;;;6.20;5.60;;;30.40;99.90;;;;;;5139051;28;20035;-73
2023/09/01 12:26:16;;;;;;;5.68;5.00;;;30.50;99.90;;;;;;5139659;28;20030;-73
2023/09/01 12:28:47;;;;;;;7.70;4.55;;;30.20;99.90;;;;;;5138134;28;20033;-72
2023/09/01 12:31:17;;;;;;;7.30;4.97;;;30.20;99.90;;;;;;5139049;28;20027;-74
2023/09/01 12:33:48;;;;;;;8.18;5.38;;;30.00;99.90;;;;;;5139980;28;20034;-73
2023/09/01 12:36:19;;;;;;;6.07;5.45;;;30.00;99.90;;;;;;5138271;28;20559;-74
2023/09/01 12:38:50;;;;;;;6.38;5.00;;;30.10;99.90;;;;;;5140247;28;20110;-73
2023/09/01 12:41:21;;;;;;;6.07;5.40;;;30.40;99.90;;;;;;5138226;28;20035;-75
2023/09/01 12:43:52;;;;;;;5.85;5.28;;;30.40;99.90;;;;;;5140581;28;20046;-73
2023/09/01 12:46:23;;;;;;;6.50;5.00;;;30.20;99.90;;;;;;5138389;28;20050;-73
2023/09/01 12:48:54;;;;;;;5.30;4.85;;;30.50;99.90;;;;;;5139107;28;20843;-74
2023/09/01 12:51:25;;;;;;;4.97;4.50;;;30.50;99.90;;;;;;5138591;28;21376;-73
2023/09/01 12:53:55;;;;;;;5.45;4.95;;;30.40;99.90;;;;;;5138504;28;20762;-73
2023/09/01 12:56:26;;;;;;;5.88;5.00;;;30.60;99.90;;;;;;5139235;28;20035;-74
2023/09/01 12:58:57;;;;;;;5.68;5.18;;;30.40;99.90;;;;;;5140016;28;20086;-72
2023/09/01 13:01:28;;;;;;;8.38;5.28;;;30.60;99.90;;;;;;5138387;28;20034;-75
2023/09/01 13:03:58;;;;;;;6.63;5.25;;;30.50;99.90;;;;;;5139195;28;20415;-73
2023/09/01 13:06:29;;;;;;;5.90;5.22;;;30.80;99.90;;;;;;5140287;28;20394;-73
2023/09/01 13:09:02;;;;;;;6.20;5.68;;;31.00;99.90;;;;;;5140489;28;20034;-73
2023/09/01 13:11:32;;;;;;;5.78;5.22;;;30.70;99.90;;;;;;5142279;28;20038;-72